KALI/ALI METAR and TAF weather

Enter ICAO airport designator
Station Type Date Time Source
KALI METAR 2020/01/22 15:28 UTC NOAA

KALI 221528Z AUTO 14005KT 5SM RA BR OVC005 16/15 A3006 RMK AO2 P0005 T01610150


Station Type Date Time Source
KALI Decoded METAR 2020/01/22 15:28 UTC NOAA

ALICE INTERNATIONAL AIRPORT, TX, United States (KALI) 27-44N 098-01W 53M
Jan 22, 2020 - 10:28 AM EST / 2020.01.22 1528 UTC
Wind: from the SE (140 degrees) at 6 MPH (5 KT):0
Visibility: 5 mile(s):0
Sky conditions: overcast
Weather: rain; mist
Precipitation last hour: 0.05 inches
Temperature: 61.0 F (16.1 C)
Dew Point: 59.0 F (15.0 C)
Relative Humidity: 93%
Pressure (altimeter): 30.06 in. Hg (1017 hPa)
ob: KALI 221528Z AUTO 14005KT 5SM RA BR OVC005 16/15 A3006 RMK AO2 P0005 T01610150
cycle: 15

Station Type Date Time Source
KALI TAF 2020/01/22 15:36 UTC NOAA

TAF
AMD KALI 221434Z 2215/2312 11006KT 3SM -RA BR OVC004
TEMPO 2215/2217 1SM -RA BR OVC003
FM221700 15010KT 4SM -SHRA OVC008
TEMPO 2217/2219 2SM RA BKN005
FM221900 18014G20KT P6SM OVC015
FM230200 20006KT 6SM BR SCT015
FM230600 29004KT 2SM BR OVC004
FM230800 31003KT 1/2SM FG VV003

Example: see airport list